Wednesday, August 24, 2016
01:34 UTC
  |  Log In   |  Register Free
Airport Search:

Enterprise Municipal Airport
(KEDN)

Enterprise Municipal Airport Diagram
No Airport Diagram Available

FAA data valid effective May 26 2016 - Jul 21 2016 (unless otherwise noted).

 
 
 
 
 
 
 
 
 
 
 
 
 
 
Current Aviation Weather for KEDN

Weather Summary


The most recent METAR observation for EDN was updated at: 12:53 UTC
METAR for EDN is not available. Closest METAR is for
METAR

METAR KEDN METAR not available

METAR K0J4 240058Z 00000KT 10SM CLR 28/24 A3017 RMK AO2 SLP210 T02780244

METAR K1J0 240058Z 32004KT 3SM RA FEW043 SCT050 BKN095 25/22 A3017 RMK AO2 RAB39 TSE06B13B15B30E45 SLP173 P0007 T02500217

METAR K79J 240056Z 00000KT 10SM CLR 31/24 A3015 RMK AO2 SLP204 T03060239

TAF for EDN is not available.
TAF

KOZR - TAF KOZR 240000Z 2400/2506 01006KT 9999 SCT040 SCT100 QNH3004INS

KOZR - TEMPO 2400/2402 01012KT 8000 -TSRA BKN035CB

KOZR - BECMG 2405/2406 09006KT 9999 SCT030 BKN040 QNH3004INS

KOZR - BECMG 2414/2415 09006KT 9999 SCT030 SCT060 QNH3002INS

KOZR - TEMPO 2419/2424 14010G25KT 8000 -TSRA BKN030CB TX35/2420Z TN23/2411Z =

KDHN - TAF AMD KDHN 240111Z 2401/2424 02005KT P6SM VCTS SCT050CB

KDHN - TEMPO 2401/2403 4SM TSRA BKN035CB

KDHN - FM240300 06004KT P6SM SCT040 =

KTOI - TAF KTOI 232335Z 2400/2424 VRB02KT P6SM FEW250

KTOI - FM241700 10005KT P6SM SCT040 PROB30 2420/2424 P6SM TSRA SCT040CB =

GlobalAir.com is loading additional information.
 Current Weather at EDN
73.0 F° (23.0 C°)

South winds at 5.8 mph
Pressure:
30.02 in
Humidity:
100%
Wind:
South at 5.8 mph
Dew Point:
73.4 F° (23.0 C°)
Visibility:
0.50 mi
EDN NOAA Radar




Find All Airport Services Find A Hotel Find A Rental Car Find A Golf Course Find A Restaurant $100 Hamburger



Airport Weather Forecast for KEDN

Translated METAR for KLOR (2353 UTC)
METAR:
KLOR 232353Z AUTO Lowe Army Heliport (Fort Rucker), Fort Rucker Ozark, AL (KLOR). Sep 23, 2353Z, Automated. Wind is Calm, 10 statute miles visibility, Few clouds at 11,000 feet, Temperature 31°C, Dewpoint 25°C, Altimeter is 30.12. Remarks: automated station with precipitation discriminator sea level pressure 1019.6 hectopascals hourly temp 31.1°C dewpoint 25.0°C 6-hour max temp 35.6°C 6-hour min temp 31.1°C 3-hour atmospheric pressure decreasing or steady, then increasing; or increasing then increasing more rapidly by 0.5 hectopascals
Conditions at:
KLOR (Lowe Ahp (Fort Rucker), AL) observed 2353 UTC 23 August 2016
Temperature:
88.0 F° (31.1 C°)
Dewpoint:
not reported - refer to area weather report
Pressure:
30.12 Hg
Winds:
Calm
Visibility:
10.00
Ceiling:
at least 12,000 feet AGL
Clouds:
not reported - refer to area weather report
Remarks:
site is un-manned

Translated TAF for TAF for EDN is not available. Refer to local area forecast.
FBO's on the Field
FBO Company Facility Photos Services Transportation Aviation Fuel Prices: Prices include tax
Catering Weather Repair Courtesy Rental Type 100LL JetA JetA+ MOGAS 8087
 
Enterprise Municipal Airport

This FBO has not yet been rated
FS:Epic
Last Updated: Aug-23
Login to update fuel prices
SS:
Contact Enterprise Municipal AirportMore FBO Information
 
Add another FBO Facility Photos Catering Weather Repair Courtesy Rental Type 100LL JetA JetA+ MOGAS 8087
Services Transportation Aviation Fuel Prices: Prices include tax


model-print
model-print
model-print
model-print